ΕΜΥ, Εθνική Μετεωρολογική Υπηρεσία - Δελτία Καιρού, Προγνώσεις

ΑΕΡΟΝΑΥΤΙΛΙΑ

GREEK AIRPORTS CODES

LGIK 010530Z AUTO 35018KT //// -RA ////// 08/M01 Q1015 RE// RMK 0.0MM=

EUROPEAN AIRPORTS CODES

LFPO 010530Z AUTO 27006KT 9999 SCT036 06/02 Q1028 NOSIG=